MMPR/PVR METAR and TAF weather

Enter ICAO airport designator
Station Type Date Time Source
MMPR METAR 2020/09/21 04:47 UTC NOAA

MMPR 210447Z 00000KT 12SM SCT020 BKN080 27/25 A2991 RMK 8/460


Station Type Date Time Source
MMPR Decoded METAR 2020/09/21 04:47 UTC NOAA

Puerto Vallarta / Lic, Mexico (MMPR) 20-41N 105-15W
Sep 21, 2020 - 12:47 AM EDT / 2020.09.21 0447 UTC
Wind: Calm:0
Visibility: 12 mile(s):0
Sky conditions: mostly cloudy
Temperature: 80 F (27 C)
Dew Point: 77 F (25 C)
Relative Humidity: 88%
Pressure (altimeter): 29.91 in. Hg (1012 hPa)
ob: MMPR 210447Z 00000KT 12SM SCT020 BKN080 27/25 A2991 RMK 8/460
cycle: 5

Station Type Date Time Source
MMPR TAF 2020/09/21 06:41 UTC NOAA

TAF MMPR 210333Z 2106/2212 07005KT P6SM SCT020 BKN080 TX31/2112Z TN24/2112Z
FM211800 22010KT P6SM SCT020CB BKN100
TEMPO 2122/2202 6SM TSRA BKN015CB

Example: see airport list